Time;durP1;ratioP1;P1;durP2;ratioP2;P2;SDS_P1;SDS_P2;PMS_P1;PMS_P2;Temp;Humidity;BMP_temperature;BMP_pressure;BME280_temperature;BME280_humidity;BME280_pressure;Samples;Min_cycle;Max_cycle;Signal;HPM_P1;HPM_P2
2021/04/01 00:01:45;;;;;;;;;;;19.80;99.90;;;;;;4932153;29;19927;-78
2021/04/01 00:04:13;;;;;;;;;;;19.90;99.90;;;;;;4933680;29;19973;-79
2021/04/01 00:06:40;;;;;;;;;;;20.00;99.90;;;;;;4932157;29;20260;-78
2021/04/01 00:09:07;;;;;;;;;;;20.10;99.90;;;;;;4931549;29;19919;-77
2021/04/01 00:11:34;;;;;;;;;;;20.20;99.90;;;;;;4934501;29;20406;-80
2021/04/01 00:14:03;;;;;;;;;;;20.30;99.90;;;;;;4936232;29;20025;-77
2021/04/01 00:16:34;;;;;;;;;;;20.50;99.90;;;;;;4921415;29;20001;-80
2021/04/01 00:19:01;;;;;;;;;;;20.70;99.90;;;;;;4935554;29;19914;-78
2021/04/01 00:21:28;;;;;;;;;;;20.70;99.90;;;;;;4936171;29;19965;-78
2021/04/01 00:23:54;;;;;;;;;;;20.80;99.90;;;;;;4935242;29;19923;-78
2021/04/01 00:26:22;;;;;;;;;;;21.00;99.90;;;;;;4936259;29;19917;-78
2021/04/01 00:28:49;;;;;;;;;;;21.00;99.90;;;;;;4917346;29;19918;-79
2021/04/01 00:31:15;;;;;;;;;;;21.00;99.90;;;;;;4931166;29;19917;-79
2021/04/01 00:33:42;;;;;;;;;;;21.10;99.90;;;;;;4936631;29;20358;-79
2021/04/01 00:36:09;;;;;;;;;;;21.30;99.90;;;;;;4934784;29;20124;-78
2021/04/01 00:38:36;;;;;;;;;;;21.30;99.90;;;;;;4934449;29;19976;-81
2021/04/01 00:41:03;;;;;;;;;;;21.40;99.90;;;;;;4958879;29;19898;-78
2021/04/01 00:43:29;;;;;;;;;;;21.40;99.90;;;;;;4943134;29;19918;-78
2021/04/01 00:45:56;;;;;;;;;;;21.40;99.90;;;;;;4935577;29;19915;-78
2021/04/01 00:48:23;;;;;;;;;;;21.40;99.90;;;;;;4926541;29;19958;-77
2021/04/01 00:50:49;;;;;;;;;;;21.40;99.90;;;;;;4933459;29;19995;-77
2021/04/01 00:53:16;;;;;;;;;;;21.50;99.90;;;;;;4933774;29;19915;-77
2021/04/01 00:55:43;;;;;;;;;;;21.50;99.90;;;;;;4934682;29;20067;-77
2021/04/01 00:58:09;;;;;;;;;;;21.50;99.90;;;;;;4935196;29;20341;-77
2021/04/01 01:00:37;;;;;;;;;;;21.50;99.90;;;;;;4935925;29;19923;-78
2021/04/01 01:03:04;;;;;;;;;;;21.50;99.90;;;;;;4932369;29;19919;-77
2021/04/01 01:05:32;;;;;;;;;;;21.50;99.90;;;;;;4928987;29;20424;-78
2021/04/01 01:08:00;;;;;;;;;;;21.70;99.90;;;;;;4917057;29;20154;-75
2021/04/01 01:10:31;;;;;;;;;;;21.80;99.90;;;;;;4933012;29;19973;-76
2021/04/01 01:12:59;;;;;;;;;;;21.80;99.90;;;;;;4934917;29;19915;-76
2021/04/01 01:15:25;;;;;;;;;;;21.80;99.90;;;;;;4935219;29;20456;-76
2021/04/01 01:17:56;;;;;;;;;;;21.80;99.90;;;;;;4934979;29;20311;-76
2021/04/01 01:20:23;;;;;;;;;;;21.80;99.90;;;;;;4932364;29;20377;-75
2021/04/01 01:22:50;;;;;;;;;;;21.80;99.90;;;;;;4934380;29;19930;-77
2021/04/01 01:25:18;;;;;;;;;;;21.90;99.90;;;;;;4936022;29;19911;-76
2021/04/01 01:27:45;;;;;;;;;;;21.90;99.90;;;;;;4935614;29;19922;-76
2021/04/01 01:30:15;;;;;;;;;;;22.00;99.90;;;;;;4935152;29;19990;-77
2021/04/01 01:32:44;;;;;;;;;;;22.10;99.90;;;;;;4933940;29;19919;-77
2021/04/01 01:35:25;;;;;;;;;;;22.10;99.90;;;;;;4935342;29;19982;-76
2021/04/01 01:37:55;;;;;;;;;;;22.30;99.90;;;;;;4931420;29;19922;-76
2021/04/01 01:40:23;;;;;;;;;;;22.40;99.90;;;;;;4935910;29;19982;-78
2021/04/01 01:42:50;;;;;;;;;;;22.50;99.90;;;;;;4918084;29;19921;-77
2021/04/01 01:45:17;;;;;;;;;;;22.50;99.90;;;;;;4935076;29;19954;-76
2021/04/01 01:47:44;;;;;;;;;;;22.50;99.90;;;;;;4934466;29;20686;-76
2021/04/01 01:50:12;;;;;;;;;;;22.70;99.90;;;;;;4933181;29;20006;-77
2021/04/01 01:52:39;;;;;;;;;;;23.00;99.90;;;;;;4934885;29;19927;-77
2021/04/01 01:55:07;;;;;;;;;;;23.00;99.90;;;;;;4932020;29;19923;-77
2021/04/01 01:57:34;;;;;;;;;;;22.90;99.90;;;;;;4934462;29;19998;-77
2021/04/01 02:00:01;;;;;;;;;;;22.90;99.90;;;;;;4933925;29;20361;-76
2021/04/01 02:02:28;;;;;;;;;;;22.90;99.90;;;;;;4935444;29;19915;-77
2021/04/01 02:04:55;;;;;;;;;;;22.90;99.90;;;;;;4935305;29;19985;-77
2021/04/01 02:07:21;;;;;;;;;;;22.80;99.90;;;;;;4933255;29;19950;-78
2021/04/01 02:09:48;;;;;;;;;;;22.70;99.90;;;;;;4934799;29;19911;-77
2021/04/01 02:12:15;;;;;;;;;;;22.70;99.90;;;;;;4935410;29;19918;-78
2021/04/01 02:14:43;;;;;;;;;;;22.60;99.90;;;;;;4931812;29;19946;-78
2021/04/01 02:17:12;;;;;;;;;;;22.60;99.90;;;;;;4935797;29;20013;-78
2021/04/01 02:19:38;;;;;;;;;;;22.60;99.90;;;;;;4934317;29;19935;-78
2021/04/01 02:22:05;;;;;;;;;;;22.60;99.90;;;;;;4955886;29;19922;-77
2021/04/01 02:24:32;;;;;;;;;;;22.70;99.90;;;;;;4954168;29;19915;-78
2021/04/01 02:26:59;;;;;;;;;;;22.70;99.90;;;;;;4955308;29;19918;-78
2021/04/01 02:29:26;;;;;;;;;;;22.70;99.90;;;;;;4952849;29;20305;-77
2021/04/01 02:31:53;;;;;;;;;;;22.80;99.90;;;;;;4943365;29;19942;-78
2021/04/01 02:34:20;;;;;;;;;;;22.80;99.90;;;;;;4937280;29;19965;-78
2021/04/01 02:36:47;;;;;;;;;;;22.70;99.90;;;;;;4935962;29;19923;-78
2021/04/01 02:39:16;;;;;;;;;;;22.70;99.90;;;;;;4937991;29;19938;-78
2021/04/01 02:41:43;;;;;;;;;;;22.70;99.90;;;;;;4938851;29;20021;-78
2021/04/01 02:44:09;;;;;;;;;;;22.70;99.90;;;;;;4906827;29;20481;-78
2021/04/01 02:46:36;;;;;;;;;;;22.60;99.90;;;;;;4940279;29;19915;-78
2021/04/01 02:49:02;;;;;;;;;;;22.60;99.90;;;;;;4936496;29;19918;-78
2021/04/01 02:51:29;;;;;;;;;;;22.60;99.90;;;;;;4934059;29;20022;-78
2021/04/01 02:53:56;;;;;;;;;;;22.60;99.90;;;;;;4934017;29;19929;-78
2021/04/01 02:56:22;;;;;;;;;;;22.60;99.90;;;;;;4934602;29;19969;-79
2021/04/01 02:58:49;;;;;;;;;;;22.60;99.90;;;;;;4933625;29;19973;-79
2021/04/01 03:01:16;;;;;;;;;;;22.60;99.90;;;;;;4934513;29;19961;-79
2021/04/01 03:03:46;;;;;;;;;;;22.60;99.90;;;;;;4933668;29;19915;-80
2021/04/01 03:06:13;;;;;;;;;;;22.60;99.90;;;;;;4929087;29;19922;-79
2021/04/01 03:08:39;;;;;;;;;;;22.60;99.90;;;;;;4933269;29;19919;-79
2021/04/01 03:11:07;;;;;;;;;;;22.60;99.90;;;;;;4933555;29;19919;-79
2021/04/01 03:13:34;;;;;;;;;;;22.70;99.90;;;;;;4933892;29;19921;-78
2021/04/01 03:16:01;;;;;;;;;;;22.60;99.90;;;;;;4932997;29;19919;-78
2021/04/01 03:18:27;;;;;;;;;;;22.60;99.90;;;;;;4933146;29;19911;-79
2021/04/01 03:20:54;;;;;;;;;;;22.70;99.90;;;;;;4934110;29;20401;-79
2021/04/01 03:23:21;;;;;;;;;;;22.60;99.90;;;;;;4946264;29;19950;-78
2021/04/01 03:25:48;;;;;;;;;;;22.60;99.90;;;;;;4953259;29;19914;-78
2021/04/01 03:28:16;;;;;;;;;;;22.70;99.90;;;;;;4934477;29;20022;-78
2021/04/01 03:30:52;;;;;;;;;;;22.60;99.90;;;;;;4933345;29;19915;-78
2021/04/01 03:33:19;;;;;;;;;;;22.50;99.90;;;;;;4939999;29;19974;-77
2021/04/01 03:35:49;;;;;;;;;;;22.50;99.90;;;;;;4935040;29;19923;-79
2021/04/01 03:38:17;;;;;;;;;;;22.60;99.90;;;;;;4951781;29;19958;-78
2021/04/01 03:40:44;;;;;;;;;;;22.70;99.90;;;;;;4945475;29;20349;-79
2021/04/01 03:43:11;;;;;;;;;;;22.60;99.90;;;;;;4933161;29;19921;-78
2021/04/01 03:45:37;;;;;;;;;;;22.60;99.90;;;;;;4930325;29;19921;-80
2021/04/01 03:48:04;;;;;;;;;;;22.60;99.90;;;;;;4933556;29;19911;-79
2021/04/01 03:50:31;;;;;;;;;;;22.60;99.90;;;;;;4935237;29;20517;-78
2021/04/01 03:52:57;;;;;;;;;;;22.60;99.90;;;;;;4957145;29;19978;-79
2021/04/01 03:55:38;;;;;;;;;;;22.60;99.90;;;;;;4940325;29;19943;-78
2021/04/01 04:00:39;;;;;;;;;;;22.60;99.90;;;;;;4933508;29;19911;-78
2021/04/01 04:16:41;;;;;;;;;;;22.40;99.90;;;;;;4951726;29;19938;-77
2021/04/01 04:19:08;;;;;;;;;;;22.40;99.90;;;;;;4935632;29;20380;-78
2021/04/01 04:21:35;;;;;;;;;;;22.40;99.90;;;;;;4933389;29;19935;-78
2021/04/01 04:24:03;;;;;;;;;;;22.50;99.90;;;;;;4932729;29;19926;-78
2021/04/01 04:26:30;;;;;;;;;;;22.50;99.90;;;;;;4931836;29;19918;-77
2021/04/01 04:28:56;;;;;;;;;;;22.50;99.90;;;;;;4932872;29;20259;-77
2021/04/01 04:31:23;;;;;;;;;;;22.50;99.90;;;;;;4932618;29;19915;-77
2021/04/01 04:33:50;;;;;;;;;;;22.50;99.90;;;;;;4927006;29;19915;-78
2021/04/01 04:36:16;;;;;;;;;;;22.50;99.90;;;;;;4930736;29;19927;-79
2021/04/01 04:38:43;;;;;;;;;;;22.50;99.90;;;;;;4930494;29;20288;-78
2021/04/01 04:41:10;;;;;;;;;;;22.60;99.90;;;;;;4929705;29;20258;-79
2021/04/01 04:43:36;;;;;;;;;;;22.60;99.90;;;;;;4932359;29;20021;-79
2021/04/01 04:46:24;;;;;;;;;;;22.50;99.90;;;;;;4922177;29;19953;-77
2021/04/01 04:48:51;;;;;;;;;;;22.40;99.90;;;;;;4921297;29;19930;-77
2021/04/01 04:51:18;;;;;;;;;;;22.40;99.90;;;;;;4921699;29;20307;-77
2021/04/01 04:53:53;;;;;;;;;;;22.30;99.90;;;;;;4915433;29;19966;-76
2021/04/01 04:56:22;;;;;;;;;;;22.30;99.90;;;;;;4919007;29;20372;-77
2021/04/01 04:58:55;;;;;;;;;;;22.30;99.90;;;;;;4924711;29;20053;-77
2021/04/01 05:09:00;;;;;;;;;;;22.30;99.90;;;;;;4934192;29;19921;-78
2021/04/01 05:11:27;;;;;;;;;;;22.20;99.90;;;;;;4936618;29;19911;-78
2021/04/01 05:13:54;;;;;;;;;;;22.20;99.90;;;;;;4931848;29;19911;-78
2021/04/01 05:16:21;;;;;;;;;;;22.20;99.90;;;;;;4932817;29;19919;-79
2021/04/01 05:18:48;;;;;;;;;;;22.20;99.90;;;;;;4926552;29;20096;-80
2021/04/01 05:21:17;;;;;;;;;;;22.10;99.90;;;;;;4923444;29;20024;-77
2021/04/01 05:23:51;;;;;;;;;;;22.20;99.90;;;;;;4933758;29;20060;-78
2021/04/01 05:29:14;;;;;;;;;;;22.00;99.90;;;;;;4898754;29;20839;-77
2021/04/01 05:31:41;;;;;;;;;;;22.00;99.90;;;;;;4933853;29;19911;-76
2021/04/01 05:34:08;;;;;;;;;;;22.10;99.90;;;;;;4930442;29;20383;-77
2021/04/01 05:36:40;;;;;;;;;;;22.10;99.90;;;;;;4932523;29;19946;-78
2021/04/01 05:39:11;;;;;;;;;;;22.10;99.90;;;;;;4933103;29;19915;-78
2021/04/01 05:41:41;;;;;;;;;;;22.10;99.90;;;;;;4923182;29;19922;-78
2021/04/01 05:44:18;;;;;;;;;;;22.00;99.90;;;;;;4923558;29;20358;-78
2021/04/01 05:47:02;;;;;;;;;;;22.00;99.90;;;;;;4932032;29;19926;-79
2021/04/01 05:49:47;;;;;;;;;;;22.00;99.90;;;;;;4931542;29;19915;-78
2021/04/01 06:05:52;;;;;;;;;;;21.80;99.90;;;;;;4936436;29;19982;-79
2021/04/01 06:08:25;;;;;;;;;;;21.70;99.90;;;;;;4924456;29;19911;-79
2021/04/01 06:10:53;;;;;;;;;;;21.70;99.90;;;;;;4942447;29;19926;-78
2021/04/01 06:13:23;;;;;;;;;;;21.70;99.90;;;;;;4943804;29;20091;-78
2021/04/01 06:15:51;;;;;;;;;;;21.60;99.90;;;;;;4934499;29;19974;-78
2021/04/01 06:18:20;;;;;;;;;;;21.60;99.90;;;;;;4935246;29;19961;-79
2021/04/01 06:20:48;;;;;;;;;;;21.60;99.90;;;;;;4933941;29;19954;-79
2021/04/01 06:23:28;;;;;;;;;;;21.60;99.90;;;;;;4935956;29;19915;-78
2021/04/01 06:25:55;;;;;;;;;;;21.70;99.90;;;;;;4936431;29;20277;-79
2021/04/01 06:28:33;;;;;;;;;;;21.60;99.90;;;;;;4933672;29;20432;-79
2021/04/01 06:31:00;;;;;;;;;;;21.60;99.90;;;;;;4936286;29;19919;-77
2021/04/01 06:33:28;;;;;;;;;;;21.50;99.90;;;;;;4936081;29;19970;-78
2021/04/01 06:36:01;;;;;;;;;;;21.50;99.90;;;;;;4937862;29;19945;-77
2021/04/01 06:38:34;;;;;;;;;;;21.50;99.90;;;;;;4935184;29;19974;-77
2021/04/01 06:41:05;;;;;;;;;;;21.40;99.90;;;;;;4934694;29;19911;-78
2021/04/01 06:43:35;;;;;;;;;;;21.40;99.90;;;;;;4933312;29;19915;-77
2021/04/01 06:46:07;;;;;;;;;;;21.50;99.90;;;;;;4933981;29;20077;-78
2021/04/01 06:51:43;;;;;;;;;;;21.50;99.90;;;;;;4934551;29;20373;-78
2021/04/01 06:54:29;;;;;;;;;;;21.40;99.90;;;;;;4933996;29;19923;-77
2021/04/01 06:57:16;;;;;;;;;;;21.30;99.90;;;;;;4932793;29;19922;-78
2021/04/01 07:00:10;;;;;;;;;;;21.30;99.90;;;;;;4932748;29;19930;-78
2021/04/01 07:02:41;;;;;;;;;;;21.20;99.90;;;;;;4928829;29;19926;-77
2021/04/01 07:05:39;;;;;;;;;;;21.20;99.90;;;;;;4934152;29;19922;-78
2021/04/01 07:08:06;;;;;;;;;;;21.20;99.90;;;;;;4941476;29;20278;-76
2021/04/01 07:10:43;;;;;;;;;;;21.20;99.90;;;;;;4942181;29;19915;-76
2021/04/01 07:13:16;;;;;;;;;;;21.10;99.90;;;;;;4930979;29;19919;-77
2021/04/01 07:15:46;;;;;;;;;;;21.10;99.90;;;;;;4932686;29;19937;-77
2021/04/01 07:18:30;;;;;;;;;;;21.10;99.90;;;;;;4933771;29;19910;-78
2021/04/01 07:22:20;;;;;;;;;;;21.00;99.90;;;;;;4935093;29;19997;-78
2021/04/01 07:48:35;;;;;;;;;;;20.70;99.90;;;;;;4926448;29;20009;-76
2021/04/01 07:51:02;;;;;;;;;;;20.70;99.90;;;;;;4950011;29;19935;-76
2021/04/01 07:53:29;;;;;;;;;;;20.70;99.90;;;;;;4938384;29;20349;-76
2021/04/01 08:04:02;;;;;;;;;;;20.50;99.90;;;;;;4932567;29;19922;-77
2021/04/01 08:06:29;;;;;;;;;;;20.50;99.90;;;;;;4932914;29;19918;-77
2021/04/01 08:09:02;;;;;;;;;;;20.50;99.90;;;;;;4932097;29;19919;-76
2021/04/01 08:11:36;;;;;;;;;;;20.40;99.90;;;;;;4930332;29;19915;-76
2021/04/01 08:14:03;;;;;;;;;;;20.50;99.90;;;;;;4932852;29;19929;-78
2021/04/01 08:16:30;;;;;;;;;;;20.40;99.90;;;;;;4931842;29;19930;-77
2021/04/01 08:18:58;;;;;;;;;;;20.40;99.90;;;;;;4933092;29;19922;-77
2021/04/01 08:21:26;;;;;;;;;;;20.40;99.90;;;;;;4932816;29;20013;-77
2021/04/01 08:24:00;;;;;;;;;;;20.30;99.90;;;;;;4929580;29;20379;-77
2021/04/01 08:29:15;;;;;;;;;;;20.30;99.90;;;;;;4932563;29;19918;-77
2021/04/01 08:36:55;;;;;;;;;;;20.20;99.90;;;;;;4936087;29;20009;-77
2021/04/01 08:39:23;;;;;;;;;;;20.20;99.90;;;;;;4936718;29;20358;-77
2021/04/01 08:41:58;;;;;;;;;;;20.20;99.90;;;;;;4936900;29;20075;-77
2021/04/01 08:44:43;;;;;;;;;;;20.20;99.90;;;;;;4935502;29;20058;-77
2021/04/01 08:47:32;;;;;;;;;;;20.20;99.90;;;;;;4935691;29;19930;-77
2021/04/01 08:49:59;;;;;;;;;;;20.20;99.90;;;;;;4933999;29;19923;-77
2021/04/01 08:52:31;;;;;;;;;;;20.20;99.90;;;;;;4935767;29;19926;-79
2021/04/01 08:55:11;;;;;;;;;;;20.20;99.90;;;;;;4935869;29;19927;-76
2021/04/01 08:57:46;;;;;;;;;;;20.20;99.90;;;;;;4936144;29;19921;-78
2021/04/01 09:00:14;;;;;;;;;;;20.20;99.90;;;;;;4935311;29;19911;-78
2021/04/01 09:02:46;;;;;;;;;;;20.10;99.90;;;;;;4918477;29;19919;-76
2021/04/01 09:05:12;;;;;;;;;;;20.10;99.90;;;;;;4936201;29;19915;-79
2021/04/01 09:07:45;;;;;;;;;;;20.00;99.90;;;;;;4934856;29;19966;-77
2021/04/01 09:13:24;;;;;;;;;;;20.00;99.90;;;;;;4933765;29;20626;-77
2021/04/01 09:15:53;;;;;;;;;;;20.00;99.90;;;;;;4931343;29;19919;-77
2021/04/01 09:18:27;;;;;;;;;;;20.00;99.90;;;;;;4934520;29;19919;-77
2021/04/01 09:20:55;;;;;;;;;;;20.00;99.90;;;;;;4934774;29;20010;-77
2021/04/01 09:23:32;;;;;;;;;;;20.00;99.90;;;;;;4935069;29;19915;-78
2021/04/01 09:26:00;;;;;;;;;;;20.00;99.90;;;;;;4936669;29;19918;-77
2021/04/01 09:28:31;;;;;;;;;;;20.00;99.90;;;;;;4935846;29;20463;-77
2021/04/01 09:31:00;;;;;;;;;;;19.90;99.90;;;;;;4935895;29;20034;-77
2021/04/01 09:33:31;;;;;;;;;;;19.90;99.90;;;;;;4936110;29;19910;-77
2021/04/01 09:36:08;;;;;;;;;;;19.80;99.90;;;;;;4935170;29;19970;-77
2021/04/01 09:38:43;;;;;;;;;;;19.90;99.90;;;;;;4936019;29;19933;-77
2021/04/01 09:41:24;;;;;;;;;;;19.80;99.90;;;;;;4936579;29;19919;-78
2021/04/01 09:43:51;;;;;;;;;;;19.80;99.90;;;;;;4934498;29;19930;-78
2021/04/01 09:46:20;;;;;;;;;;;19.80;99.90;;;;;;4935830;29;19933;-77
2021/04/01 09:49:10;;;;;;;;;;;19.80;99.90;;;;;;4935585;29;20358;-77
2021/04/01 09:51:37;;;;;;;;;;;19.80;99.90;;;;;;4935902;29;19914;-77
2021/04/01 09:54:04;;;;;;;;;;;19.80;99.90;;;;;;4935292;29;19950;-76
2021/04/01 09:56:31;;;;;;;;;;;19.80;99.90;;;;;;4935259;29;19958;-77
2021/04/01 09:58:58;;;;;;;;;;;19.80;99.90;;;;;;4935551;29;20373;-78
2021/04/01 10:01:36;;;;;;;;;;;19.80;99.90;;;;;;4934621;29;19915;-77
2021/04/01 10:04:12;;;;;;;;;;;19.90;99.90;;;;;;4933647;29;20365;-77
2021/04/01 10:07:00;;;;;;;;;;;19.80;99.90;;;;;;4935005;29;19934;-77
2021/04/01 10:09:27;;;;;;;;;;;19.80;99.90;;;;;;4915597;29;19971;-77
2021/04/01 10:11:54;;;;;;;;;;;19.80;99.90;;;;;;4922060;29;19915;-77
2021/04/01 10:14:21;;;;;;;;;;;19.80;99.90;;;;;;4918106;29;19930;-77
2021/04/01 10:17:09;;;;;;;;;;;19.80;99.90;;;;;;4917108;29;20365;-77
2021/04/01 10:19:43;;;;;;;;;;;19.80;99.90;;;;;;4932275;29;20393;-77
2021/04/01 10:22:27;;;;;;;;;;;19.80;99.90;;;;;;4927308;29;19919;-77
2021/04/01 10:25:21;;;;;;;;;;;19.70;99.90;;;;;;4924329;29;19998;-77
2021/04/01 10:28:00;;;;;;;;;;;19.70;99.90;;;;;;4933093;29;19954;-76
2021/04/01 10:30:34;;;;;;;;;;;19.70;99.90;;;;;;4909455;29;19919;-77
2021/04/01 10:33:06;;;;;;;;;;;19.60;99.90;;;;;;4933248;29;20218;-77
2021/04/01 10:35:35;;;;;;;;;;;19.60;99.90;;;;;;4925697;29;19922;-77
2021/04/01 10:38:03;;;;;;;;;;;19.50;99.90;;;;;;4931633;29;19929;-76
2021/04/01 10:40:30;;;;;;;;;;;19.50;99.90;;;;;;4934171;29;19982;-77
2021/04/01 10:43:04;;;;;;;;;;;19.60;99.90;;;;;;4934409;29;20369;-77
2021/04/01 10:45:35;;;;;;;;;;;19.60;99.90;;;;;;4934977;29;19966;-77
2021/04/01 10:48:02;;;;;;;;;;;19.70;99.90;;;;;;4934224;29;19965;-77
2021/04/01 10:50:28;;;;;;;;;;;19.70;99.90;;;;;;4934857;29;19997;-77
2021/04/01 10:52:56;;;;;;;;;;;19.60;99.90;;;;;;4934498;29;19910;-76
2021/04/01 10:55:31;;;;;;;;;;;19.70;99.90;;;;;;4933885;29;19919;-77
2021/04/01 10:58:08;;;;;;;;;;;19.70;99.90;;;;;;4936490;29;19918;-77
2021/04/01 11:00:35;;;;;;;;;;;19.70;99.90;;;;;;4936337;29;20326;-77
2021/04/01 11:03:03;;;;;;;;;;;19.60;99.90;;;;;;4936480;29;20003;-78
2021/04/01 11:05:32;;;;;;;;;;;19.60;99.90;;;;;;4935236;29;19947;-77
2021/04/01 11:08:06;;;;;;;;;;;19.60;99.90;;;;;;4935781;29;19911;-76
2021/04/01 11:10:34;;;;;;;;;;;19.60;99.90;;;;;;4935839;29;19931;-77
2021/04/01 11:13:02;;;;;;;;;;;19.60;99.90;;;;;;4935347;29;19915;-76
2021/04/01 11:15:30;;;;;;;;;;;19.60;99.90;;;;;;4935162;29;20301;-77
2021/04/01 11:18:00;;;;;;;;;;;19.60;99.90;;;;;;4934406;29;20325;-77
2021/04/01 11:20:32;;;;;;;;;;;19.60;99.90;;;;;;4934401;29;20038;-77
2021/04/01 11:23:28;;;;;;;;;;;19.60;99.90;;;;;;4935027;29;19915;-77
2021/04/01 11:25:56;;;;;;;;;;;19.50;99.90;;;;;;4919564;29;19914;-76
2021/04/01 11:28:33;;;;;;;;;;;19.50;99.90;;;;;;4933252;29;19911;-76
2021/04/01 11:31:00;;;;;;;;;;;19.50;99.90;;;;;;4930245;29;19954;-76
2021/04/01 11:33:27;;;;;;;;;;;19.50;99.90;;;;;;4930605;29;20374;-77
2021/04/01 11:36:12;;;;;;;;;;;19.50;99.90;;;;;;4935197;29;19994;-76
2021/04/01 11:38:44;;;;;;;;;;;19.50;99.90;;;;;;4933426;29;19934;-76
2021/04/01 11:41:16;;;;;;;;;;;19.50;99.90;;;;;;4934327;29;20345;-76
2021/04/01 11:43:42;;;;;;;;;;;19.50;99.90;;;;;;4933601;29;19911;-77
2021/04/01 11:46:21;;;;;;;;;;;19.50;99.90;;;;;;4936193;29;19919;-76
2021/04/01 11:48:49;;;;;;;;;;;19.50;99.90;;;;;;4935498;29;19918;-76
2021/04/01 11:51:18;;;;;;;;;;;19.50;99.90;;;;;;4935599;29;19911;-76
2021/04/01 11:53:53;;;;;;;;;;;19.50;99.90;;;;;;4932713;29;19911;-75
2021/04/01 11:56:21;;;;;;;;;;;19.50;99.90;;;;;;4918437;29;19923;-76
2021/04/01 11:58:47;;;;;;;;;;;19.50;99.90;;;;;;4935473;29;19974;-77
2021/04/01 12:01:39;;;;;;;;;;;19.50;99.90;;;;;;4935516;29;19911;-77
2021/04/01 12:04:08;;;;;;;;;;;19.40;99.90;;;;;;4934659;29;19919;-76
2021/04/01 12:06:36;;;;;;;;;;;19.50;99.90;;;;;;4935945;29;19911;-77
2021/04/01 12:09:03;;;;;;;;;;;19.50;99.90;;;;;;4939132;29;20432;-78
2021/04/01 12:11:42;;;;;;;;;;;19.40;99.90;;;;;;4939574;29;20329;-77
2021/04/01 12:14:10;;;;;;;;;;;19.30;99.90;;;;;;4936913;29;19921;-77
2021/04/01 12:16:36;;;;;;;;;;;19.30;99.90;;;;;;4939141;29;20001;-78
2021/04/01 12:19:03;;;;;;;;;;;19.20;99.90;;;;;;4938994;29;19914;-77
2021/04/01 12:21:30;;;;;;;;;;;19.20;99.90;;;;;;4940207;29;19915;-77
2021/04/01 12:24:02;;;;;;;;;;;19.20;99.90;;;;;;4938948;29;19918;-77
2021/04/01 12:26:32;;;;;;;;;;;19.20;99.90;;;;;;4937022;29;20401;-78
2021/04/01 12:28:59;;;;;;;;;;;19.20;99.90;;;;;;4939087;29;20002;-77
2021/04/01 12:31:32;;;;;;;;;;;19.20;99.90;;;;;;4938567;29;20356;-78
2021/04/01 12:33:59;;;;;;;;;;;19.20;99.90;;;;;;4933939;29;19931;-78
2021/04/01 12:36:30;;;;;;;;;;;19.10;99.90;;;;;;4938695;29;20424;-78
2021/04/01 12:38:56;;;;;;;;;;;19.10;99.90;;;;;;4938417;29;19925;-78
2021/04/01 12:41:27;;;;;;;;;;;19.10;99.90;;;;;;4939074;29;19942;-78
2021/04/01 12:43:54;;;;;;;;;;;19.10;99.90;;;;;;4938391;29;19955;-78
2021/04/01 12:46:21;;;;;;;;;;;19.10;99.90;;;;;;4938017;29;19949;-78
2021/04/01 12:48:56;;;;;;;;;;;19.00;99.90;;;;;;4938368;29;19943;-78
2021/04/01 12:51:25;;;;;;;;;;;19.00;99.90;;;;;;4938997;29;19921;-77
2021/04/01 12:54:07;;;;;;;;;;;19.00;99.90;;;;;;4938579;29;19914;-78
2021/04/01 12:56:40;;;;;;;;;;;19.00;99.90;;;;;;4938953;29;19922;-78
2021/04/01 13:04:10;;;;;;;;;;;19.00;99.90;;;;;;4938858;29;19911;-77
2021/04/01 13:06:54;;;;;;;;;;;19.00;99.90;;;;;;4934391;29;20297;-78
2021/04/01 13:11:48;;;;;;;;;;;19.00;99.90;;;;;;4919689;29;20314;-78
2021/04/01 13:14:16;;;;;;;;;;;19.00;99.90;;;;;;4937204;29;19923;-78
2021/04/01 13:16:42;;;;;;;;;;;19.00;99.90;;;;;;4936678;29;20009;-78
2021/04/01 13:19:09;;;;;;;;;;;19.10;99.90;;;;;;4938130;29;19922;-78
2021/04/01 13:26:52;;;;;;;;;;;19.10;99.90;;;;;;4938718;29;19970;-78
2021/04/01 13:29:22;;;;;;;;;;;19.10;99.90;;;;;;4937497;29;19918;-77
2021/04/01 13:39:30;;;;;;;;;;;19.20;99.90;;;;;;4926666;29;19919;-78
2021/04/01 13:44:49;;;;;;;;;;;19.20;99.90;;;;;;4931853;29;19942;-79
2021/04/01 13:47:17;;;;;;;;;;;19.20;99.90;;;;;;4929363;29;19915;-78
2021/04/01 13:49:45;;;;;;;;;;;19.10;99.90;;;;;;4920650;29;19914;-78
2021/04/01 13:52:34;;;;;;;;;;;19.10;99.90;;;;;;4927931;29;20278;-77
2021/04/01 14:11:12;;;;;;;;;;;19.00;99.90;;;;;;4931466;29;19962;-78
2021/04/01 14:13:39;;;;;;;;;;;19.00;99.90;;;;;;4925519;29;19923;-77
2021/04/01 14:16:06;;;;;;;;;;;19.00;99.90;;;;;;4932188;29;20013;-77
2021/04/01 14:18:33;;;;;;;;;;;19.00;99.90;;;;;;4936019;29;20329;-77
2021/04/01 14:21:02;;;;;;;;;;;18.90;99.90;;;;;;4936013;29;19969;-77
2021/04/01 14:23:30;;;;;;;;;;;19.00;99.90;;;;;;4925555;29;19914;-78
2021/04/01 14:26:23;;;;;;;;;;;19.00;99.90;;;;;;4925127;29;20026;-77
2021/04/01 14:28:47;;;;;;;;;;;19.00;99.90;;;;;;4917798;29;19911;-77
2021/04/01 14:31:14;;;;;;;;;;;19.00;99.90;;;;;;4930072;29;19915;-77
2021/04/01 14:33:42;;;;;;;;;;;19.00;99.90;;;;;;4937284;29;20361;-78
2021/04/01 14:36:10;;;;;;;;;;;18.90;99.90;;;;;;4933942;29;19927;-77
2021/04/01 14:38:37;;;;;;;;;;;18.90;99.90;;;;;;4936285;29;20290;-77
2021/04/01 14:45:58;;;;;;;;;;;18.80;99.90;;;;;;4935850;29;19937;-78
2021/04/01 14:48:24;;;;;;;;;;;18.80;99.90;;;;;;4936769;29;20277;-78
2021/04/01 14:50:51;;;;;;;;;;;18.70;99.90;;;;;;4936703;29;19918;-78
2021/04/01 14:54:03;;;;;;;;;;;18.70;99.90;;;;;;4936829;29;20009;-77
2021/04/01 14:56:09;;;;;;;;;;;18.70;99.90;;;;;;4925938;29;20425;-77
2021/04/01 14:58:36;;;;;;;;;;;18.70;99.90;;;;;;4936964;29;20326;-78
2021/04/01 15:01:03;;;;;;;;;;;18.80;99.90;;;;;;4936628;29;19921;-77
2021/04/01 15:03:32;;;;;;;;;;;18.80;99.90;;;;;;4936969;29;20304;-77
2021/04/01 15:06:00;;;;;;;;;;;18.80;99.90;;;;;;4936113;29;19915;-77
2021/04/01 15:08:27;;;;;;;;;;;18.90;99.90;;;;;;4936078;29;20289;-78
2021/04/01 15:10:55;;;;;;;;;;;18.80;99.90;;;;;;4935176;29;19918;-77
2021/04/01 15:13:22;;;;;;;;;;;18.90;99.90;;;;;;4936537;29;19918;-77
2021/04/01 15:15:49;;;;;;;;;;;18.80;99.90;;;;;;4936187;29;20393;-77
2021/04/01 15:18:15;;;;;;;;;;;18.80;99.90;;;;;;4931875;29;19922;-77
2021/04/01 15:20:42;;;;;;;;;;;18.80;99.90;;;;;;4931747;29;19958;-77
2021/04/01 15:23:09;;;;;;;;;;;18.80;99.90;;;;;;4936463;29;19911;-77
2021/04/01 15:25:35;;;;;;;;;;;18.80;99.90;;;;;;4936458;29;19969;-77
2021/04/01 15:28:02;;;;;;;;;;;18.70;99.90;;;;;;4936219;29;19911;-77
2021/04/01 15:30:30;;;;;;;;;;;18.70;99.90;;;;;;4936259;29;19965;-77
2021/04/01 15:32:56;;;;;;;;;;;18.70;99.90;;;;;;4936348;29;19958;-77
2021/04/01 15:35:23;;;;;;;;;;;18.60;99.90;;;;;;4935951;29;19919;-77
2021/04/01 15:37:49;;;;;;;;;;;18.60;99.90;;;;;;4935763;29;20417;-78
2021/04/01 15:40:16;;;;;;;;;;;18.60;99.90;;;;;;4936256;29;19918;-77
2021/04/01 15:42:43;;;;;;;;;;;18.60;99.90;;;;;;4935402;29;19933;-77
2021/04/01 15:45:12;;;;;;;;;;;18.60;99.90;;;;;;4936069;29;20017;-77
2021/04/01 15:47:40;;;;;;;;;;;18.60;99.90;;;;;;4936072;29;19911;-77
2021/04/01 15:50:08;;;;;;;;;;;18.60;99.90;;;;;;4935443;29;19911;-77
2021/04/01 15:52:35;;;;;;;;;;;18.50;99.90;;;;;;4936032;29;19911;-77
2021/04/01 15:55:02;;;;;;;;;;;18.50;99.90;;;;;;4936039;29;20353;-78
2021/04/01 15:57:28;;;;;;;;;;;18.50;99.90;;;;;;4936078;29;19911;-77
2021/04/01 15:59:55;;;;;;;;;;;18.50;99.90;;;;;;4935636;29;20003;-77
2021/04/01 16:02:21;;;;;;;;;;;18.50;99.90;;;;;;4936119;29;19950;-77
2021/04/01 16:04:48;;;;;;;;;;;18.40;99.90;;;;;;4935868;29;19938;-77
2021/04/01 16:07:15;;;;;;;;;;;18.40;99.90;;;;;;4935941;29;19934;-77
2021/04/01 16:09:42;;;;;;;;;;;18.40;99.90;;;;;;4935581;29;19922;-77
2021/04/01 16:12:08;;;;;;;;;;;18.40;99.90;;;;;;4934936;29;19922;-77
2021/04/01 16:14:35;;;;;;;;;;;18.40;99.90;;;;;;4935780;29;19938;-77
2021/04/01 16:17:03;;;;;;;;;;;18.50;99.90;;;;;;4935673;29;20409;-77
2021/04/01 16:19:29;;;;;;;;;;;18.50;99.90;;;;;;4935905;29;19918;-77
2021/04/01 16:21:56;;;;;;;;;;;18.50;99.90;;;;;;4935955;29;19910;-77
2021/04/01 16:24:23;;;;;;;;;;;18.50;99.90;;;;;;4935808;29;19911;-77
2021/04/01 16:26:49;;;;;;;;;;;18.60;99.90;;;;;;4935749;29;20270;-77
2021/04/01 16:29:16;;;;;;;;;;;18.60;99.90;;;;;;4935705;29;20326;-77
2021/04/01 16:31:46;;;;;;;;;;;18.60;99.90;;;;;;4935679;29;20068;-78
2021/04/01 16:34:15;;;;;;;;;;;18.60;99.90;;;;;;4935645;29;19910;-77
2021/04/01 16:36:43;;;;;;;;;;;18.50;99.90;;;;;;4935692;29;20284;-77
2021/04/01 16:39:09;;;;;;;;;;;18.50;99.90;;;;;;4935813;29;20291;-77
2021/04/01 16:41:38;;;;;;;;;;;18.40;99.90;;;;;;4936238;29;20250;-77
2021/04/01 16:44:05;;;;;;;;;;;18.40;99.90;;;;;;4935701;29;20352;-77